sensor_id;sensor_type;location;lat;lon;timestamp;pressure;altitude;pressure_sealevel;temperature;humidity
59272;BME280;45043;51.068;7.026;2023-08-08T00:00:21;100402.72;;;11.40;60.30
59272;BME280;45043;51.068;7.026;2023-08-08T00:03:21;100406.41;;;11.39;60.42
59272;BME280;45043;51.068;7.026;2023-08-08T00:06:23;100403.13;;;11.37;60.29
59272;BME280;45043;51.068;7.026;2023-08-08T00:09:25;100402.72;;;11.33;60.41
59272;BME280;45043;51.068;7.026;2023-08-08T00:12:25;100395.75;;;11.32;60.50
59272;BME280;45043;51.068;7.026;2023-08-08T00:15:26;100387.38;;;11.29;60.43
59272;BME280;45043;51.068;7.026;2023-08-08T00:18:28;100388.19;;;11.23;60.60
59272;BME280;45043;51.068;7.026;2023-08-08T00:21:29;100388.38;;;11.21;60.71
59272;BME280;45043;51.068;7.026;2023-08-08T00:24:30;100385.91;;;11.19;61.14
59272;BME280;45043;51.068;7.026;2023-08-08T00:27:31;100381.84;;;11.17;60.84
59272;BME280;45043;51.068;7.026;2023-08-08T00:30:34;100382.03;;;11.15;61.54
59272;BME280;45043;51.068;7.026;2023-08-08T00:33:37;100379.97;;;11.11;61.44
59272;BME280;45043;51.068;7.026;2023-08-08T00:36:39;100380.19;;;11.09;61.96
59272;BME280;45043;51.068;7.026;2023-08-08T00:39:40;100387.16;;;11.10;61.72
59272;BME280;45043;51.068;7.026;2023-08-08T00:42:43;100381.19;;;11.08;61.92
59272;BME280;45043;51.068;7.026;2023-08-08T00:45:44;100382.00;;;11.09;61.99
59272;BME280;45043;51.068;7.026;2023-08-08T00:48:45;100378.75;;;11.07;62.05
59272;BME280;45043;51.068;7.026;2023-08-08T00:51:46;100375.03;;;11.01;61.93
59272;BME280;45043;51.068;7.026;2023-08-08T00:54:48;100373.22;;;10.95;62.09
59272;BME280;45043;51.068;7.026;2023-08-08T00:57:49;100374.00;;;10.89;62.57
59272;BME280;45043;51.068;7.026;2023-08-08T01:00:50;100372.56;;;10.86;62.40
59272;BME280;45043;51.068;7.026;2023-08-08T01:03:54;100373.16;;;10.82;62.36
59272;BME280;45043;51.068;7.026;2023-08-08T01:07:12;100378.47;;;10.82;62.42
59272;BME280;45043;51.068;7.026;2023-08-08T01:10:21;100378.88;;;10.79;62.65
59272;BME280;45043;51.068;7.026;2023-08-08T01:13:25;100378.28;;;10.77;62.47
59272;BME280;45043;51.068;7.026;2023-08-08T01:16:27;100378.28;;;10.77;62.73
59272;BME280;45043;51.068;7.026;2023-08-08T01:19:31;100380.94;;;10.77;62.83
59272;BME280;45043;51.068;7.026;2023-08-08T01:22:40;100373.16;;;10.75;62.86
59272;BME280;45043;51.068;7.026;2023-08-08T01:25:44;100379.69;;;10.72;63.22
59272;BME280;45043;51.068;7.026;2023-08-08T01:28:45;100365.38;;;10.73;62.88
59272;BME280;45043;51.068;7.026;2023-08-08T01:31:46;100368.66;;;10.76;62.85
59272;BME280;45043;51.068;7.026;2023-08-08T01:34:48;100372.31;;;10.75;62.66
59272;BME280;45043;51.068;7.026;2023-08-08T01:37:54;100370.06;;;10.71;62.85
59272;BME280;45043;51.068;7.026;2023-08-08T01:40:59;100365.56;;;10.72;62.62
59272;BME280;45043;51.068;7.026;2023-08-08T01:44:01;100363.94;;;10.71;62.70
59272;BME280;45043;51.068;7.026;2023-08-08T01:47:03;100356.59;;;10.73;62.32
59272;BME280;45043;51.068;7.026;2023-08-08T01:50:07;100356.78;;;10.71;62.92
59272;BME280;45043;51.068;7.026;2023-08-08T01:53:08;100354.34;;;10.70;62.47
59272;BME280;45043;51.068;7.026;2023-08-08T01:56:10;100360.03;;;10.67;62.80
59272;BME280;45043;51.068;7.026;2023-08-08T01:59:11;100362.06;;;10.65;62.74
59272;BME280;45043;51.068;7.026;2023-08-08T02:02:11;100367.19;;;10.66;62.97
59272;BME280;45043;51.068;7.026;2023-08-08T02:05:13;100360.84;;;10.67;62.72
59272;BME280;45043;51.068;7.026;2023-08-08T02:08:14;100359.22;;;10.66;62.65
59272;BME280;45043;51.068;7.026;2023-08-08T02:11:15;100361.88;;;10.66;62.90
59272;BME280;45043;51.068;7.026;2023-08-08T02:14:16;100361.06;;;10.66;62.89
59272;BME280;45043;51.068;7.026;2023-08-08T02:17:17;100355.91;;;10.64;62.79
59272;BME280;45043;51.068;7.026;2023-08-08T02:20:18;100333.41;;;10.60;62.81
59272;BME280;45043;51.068;7.026;2023-08-08T02:23:19;100344.03;;;10.60;63.27
59272;BME280;45043;51.068;7.026;2023-08-08T02:26:20;100327.72;;;10.63;63.14
59272;BME280;45043;51.068;7.026;2023-08-08T02:29:20;100330.38;;;10.63;63.21
59272;BME280;45043;51.068;7.026;2023-08-08T02:32:21;100332.22;;;10.63;62.95
59272;BME280;45043;51.068;7.026;2023-08-08T02:35:21;100329.13;;;10.59;62.95
59272;BME280;45043;51.068;7.026;2023-08-08T02:38:22;100321.56;;;10.56;63.11
59272;BME280;45043;51.068;7.026;2023-08-08T02:41:23;100326.88;;;10.56;63.49
59272;BME280;45043;51.068;7.026;2023-08-08T02:44:25;100325.47;;;10.54;63.12
59272;BME280;45043;51.068;7.026;2023-08-08T02:47:26;100315.41;;;10.49;63.75
59272;BME280;45043;51.068;7.026;2023-08-08T02:50:27;100322.38;;;10.50;63.61
59272;BME280;45043;51.068;7.026;2023-08-08T02:53:28;100316.22;;;10.49;63.25
59272;BME280;45043;51.068;7.026;2023-08-08T02:56:29;100316.44;;;10.48;63.19
59272;BME280;45043;51.068;7.026;2023-08-08T02:59:30;100315.81;;;10.46;63.37
59272;BME280;45043;51.068;7.026;2023-08-08T03:02:34;100318.03;;;10.42;63.17
59272;BME280;45043;51.068;7.026;2023-08-08T03:05:35;100305.19;;;10.39;63.31
59272;BME280;45043;51.068;7.026;2023-08-08T03:08:36;100310.47;;;10.33;63.72
59272;BME280;45043;51.068;7.026;2023-08-08T03:11:39;100305.53;;;10.30;63.51
59272;BME280;45043;51.068;7.026;2023-08-08T03:14:44;100300.03;;;10.24;63.79
59272;BME280;45043;51.068;7.026;2023-08-08T03:17:48;100294.28;;;10.21;63.88
59272;BME280;45043;51.068;7.026;2023-08-08T03:20:49;100296.13;;;10.20;63.92
59272;BME280;45043;51.068;7.026;2023-08-08T03:23:51;100294.72;;;10.24;63.61
59272;BME280;45043;51.068;7.026;2023-08-08T03:26:52;100302.69;;;10.24;64.03
59272;BME280;45043;51.068;7.026;2023-08-08T03:29:53;100289.97;;;10.20;63.83
59272;BME280;45043;51.068;7.026;2023-08-08T03:32:54;100287.13;;;10.21;64.02
59272;BME280;45043;51.068;7.026;2023-08-08T03:35:55;100299.59;;;10.28;63.92
59272;BME280;45043;51.068;7.026;2023-08-08T03:38:56;100294.28;;;10.28;63.86
59272;BME280;45043;51.068;7.026;2023-08-08T03:41:57;100295.72;;;10.23;64.05
59272;BME280;45043;51.068;7.026;2023-08-08T03:44:58;100296.56;;;10.24;64.06
59272;BME280;45043;51.068;7.026;2023-08-08T03:47:59;100302.03;;;10.22;64.25
59272;BME280;45043;51.068;7.026;2023-08-08T03:50:59;100303.28;;;10.27;64.22
59272;BME280;45043;51.068;7.026;2023-08-08T03:54:00;100301.00;;;10.23;64.50
59272;BME280;45043;51.068;7.026;2023-08-08T03:57:01;100291.63;;;10.21;64.57
59272;BME280;45043;51.068;7.026;2023-08-08T04:00:06;100311.00;;;10.15;64.93
59272;BME280;45043;51.068;7.026;2023-08-08T04:03:15;100306.72;;;10.14;64.89
59272;BME280;45043;51.068;7.026;2023-08-08T04:06:17;100303.03;;;10.15;65.23
59272;BME280;45043;51.068;7.026;2023-08-08T04:09:18;100305.47;;;10.16;65.08
59272;BME280;45043;51.068;7.026;2023-08-08T04:12:18;100318.53;;;10.11;65.61
59272;BME280;45043;51.068;7.026;2023-08-08T04:15:19;100326.88;;;10.08;65.59
59272;BME280;45043;51.068;7.026;2023-08-08T04:18:20;100321.78;;;10.07;65.96
59272;BME280;45043;51.068;7.026;2023-08-08T04:21:21;100308.09;;;10.03;66.20
59272;BME280;45043;51.068;7.026;2023-08-08T04:24:22;100308.69;;;10.05;66.17
59272;BME280;45043;51.068;7.026;2023-08-08T04:27:22;100305.63;;;10.01;66.67
59272;BME280;45043;51.068;7.026;2023-08-08T04:30:23;100306.25;;;10.04;66.79
59272;BME280;45043;51.068;7.026;2023-08-08T04:33:24;100309.13;;;10.02;66.71
59272;BME280;45043;51.068;7.026;2023-08-08T04:36:28;100310.09;;;10.01;66.95
59272;BME280;45043;51.068;7.026;2023-08-08T04:39:29;100300.50;;;10.00;66.94
59272;BME280;45043;51.068;7.026;2023-08-08T04:42:30;100298.94;;;10.06;67.26
59272;BME280;45043;51.068;7.026;2023-08-08T04:45:31;100302.22;;;10.14;67.36
59272;BME280;45043;51.068;7.026;2023-08-08T04:48:31;100307.16;;;10.24;67.77
59272;BME280;45043;51.068;7.026;2023-08-08T04:51:33;100300.63;;;10.27;67.35
59272;BME280;45043;51.068;7.026;2023-08-08T04:54:33;100304.09;;;10.27;67.32
59272;BME280;45043;51.068;7.026;2023-08-08T04:57:34;100302.25;;;10.28;67.76
59272;BME280;45043;51.068;7.026;2023-08-08T05:00:35;100293.75;;;10.39;67.48
59272;BME280;45043;51.068;7.026;2023-08-08T05:03:35;100292.31;;;10.43;67.18
59272;BME280;45043;51.068;7.026;2023-08-08T05:06:37;100291.50;;;10.49;67.28
59272;BME280;45043;51.068;7.026;2023-08-08T05:09:38;100285.63;;;10.54;67.43
59272;BME280;45043;51.068;7.026;2023-08-08T05:12:39;100282.41;;;10.78;67.55
59272;BME280;45043;51.068;7.026;2023-08-08T05:15:39;100287.31;;;11.01;67.14
59272;BME280;45043;51.068;7.026;2023-08-08T05:18:40;100273.44;;;11.19;66.53
59272;BME280;45043;51.068;7.026;2023-08-08T05:21:44;100282.00;;;11.34;66.47
59272;BME280;45043;51.068;7.026;2023-08-08T05:24:45;100279.34;;;11.41;65.59
59272;BME280;45043;51.068;7.026;2023-08-08T05:27:46;100281.78;;;11.49;65.17
59272;BME280;45043;51.068;7.026;2023-08-08T05:30:47;100276.63;;;11.61;65.71
59272;BME280;45043;51.068;7.026;2023-08-08T05:33:48;100275.44;;;11.77;64.60
59272;BME280;45043;51.068;7.026;2023-08-08T05:36:49;100280.94;;;11.82;64.54
59272;BME280;45043;51.068;7.026;2023-08-08T05:39:50;100283.19;;;11.85;64.12
59272;BME280;45043;51.068;7.026;2023-08-08T05:42:51;100289.31;;;11.85;63.89
59272;BME280;45043;51.068;7.026;2023-08-08T05:45:52;100280.28;;;11.93;63.72
59272;BME280;45043;51.068;7.026;2023-08-08T05:48:53;100273.75;;;11.89;63.99
59272;BME280;45043;51.068;7.026;2023-08-08T05:51:53;100285.22;;;11.83;64.13
59272;BME280;45043;51.068;7.026;2023-08-08T05:54:54;100279.88;;;11.83;64.14
59272;BME280;45043;51.068;7.026;2023-08-08T05:57:54;100280.34;;;11.80;64.14
59272;BME280;45043;51.068;7.026;2023-08-08T06:00:55;100284.00;;;11.79;64.29
59272;BME280;45043;51.068;7.026;2023-08-08T06:03:56;100297.94;;;11.81;64.22
59272;BME280;45043;51.068;7.026;2023-08-08T06:06:59;100302.44;;;11.80;64.23
59272;BME280;45043;51.068;7.026;2023-08-08T06:10:00;100295.06;;;11.76;64.05
59272;BME280;45043;51.068;7.026;2023-08-08T06:13:01;100307.34;;;11.77;64.26
59272;BME280;45043;51.068;7.026;2023-08-08T06:16:02;100298.34;;;11.78;64.42
59272;BME280;45043;51.068;7.026;2023-08-08T06:19:07;100298.75;;;11.81;64.07
59272;BME280;45043;51.068;7.026;2023-08-08T06:22:07;100306.50;;;11.83;64.37
59272;BME280;45043;51.068;7.026;2023-08-08T06:25:08;100322.69;;;11.81;64.31
59272;BME280;45043;51.068;7.026;2023-08-08T06:28:09;100306.72;;;11.88;63.85
59272;BME280;45043;51.068;7.026;2023-08-08T06:31:09;100314.88;;;11.93;63.97
59272;BME280;45043;51.068;7.026;2023-08-08T06:34:10;100319.16;;;11.94;63.82
59272;BME280;45043;51.068;7.026;2023-08-08T06:37:11;100316.72;;;11.99;63.61
59272;BME280;45043;51.068;7.026;2023-08-08T06:40:12;100317.72;;;12.05;63.49
59272;BME280;45043;51.068;7.026;2023-08-08T06:43:13;100305.03;;;12.00;63.12
59272;BME280;45043;51.068;7.026;2023-08-08T06:46:14;100326.75;;;11.97;63.49
59272;BME280;45043;51.068;7.026;2023-08-08T06:49:15;100317.97;;;11.90;63.92
59272;BME280;45043;51.068;7.026;2023-08-08T06:52:17;100320.44;;;11.85;63.48
59272;BME280;45043;51.068;7.026;2023-08-08T06:55:18;100317.97;;;11.90;63.78
59272;BME280;45043;51.068;7.026;2023-08-08T06:58:18;100321.41;;;11.97;63.94
59272;BME280;45043;51.068;7.026;2023-08-08T07:01:19;100319.56;;;12.04;63.55
59272;BME280;45043;51.068;7.026;2023-08-08T07:04:21;100310.94;;;12.09;63.59
59272;BME280;45043;51.068;7.026;2023-08-08T07:07:23;100308.06;;;12.10;62.99
59272;BME280;45043;51.068;7.026;2023-08-08T07:10:23;100302.53;;;12.12;63.58
59272;BME280;45043;51.068;7.026;2023-08-08T07:13:24;100304.78;;;12.08;63.34
59272;BME280;45043;51.068;7.026;2023-08-08T07:16:25;100294.97;;;12.09;63.59
59272;BME280;45043;51.068;7.026;2023-08-08T07:19:26;100301.72;;;12.11;63.08
59272;BME280;45043;51.068;7.026;2023-08-08T07:22:26;100311.34;;;12.12;63.75
59272;BME280;45043;51.068;7.026;2023-08-08T07:25:27;100307.66;;;12.13;63.23
59272;BME280;45043;51.068;7.026;2023-08-08T07:28:28;100315.44;;;12.15;63.14
59272;BME280;45043;51.068;7.026;2023-08-08T07:31:28;100309.69;;;12.18;63.34
59272;BME280;45043;51.068;7.026;2023-08-08T07:34:29;100318.50;;;12.12;63.40
59272;BME280;45043;51.068;7.026;2023-08-08T07:37:30;100320.56;;;12.10;63.26
59272;BME280;45043;51.068;7.026;2023-08-08T07:40:31;100298.25;;;12.11;63.72
59272;BME280;45043;51.068;7.026;2023-08-08T07:43:32;100300.25;;;12.22;63.40
59272;BME280;45043;51.068;7.026;2023-08-08T07:46:33;100295.69;;;12.36;63.23
59272;BME280;45043;51.068;7.026;2023-08-08T07:49:34;100288.25;;;12.45;62.51
59272;BME280;45043;51.068;7.026;2023-08-08T07:52:35;100306.66;;;12.46;62.75
59272;BME280;45043;51.068;7.026;2023-08-08T07:55:36;100322.66;;;12.46;62.69
59272;BME280;45043;51.068;7.026;2023-08-08T07:58:37;100290.06;;;12.51;62.51
59272;BME280;45043;51.068;7.026;2023-08-08T08:01:38;100297.25;;;12.50;62.19
59272;BME280;45043;51.068;7.026;2023-08-08T08:04:40;100290.66;;;12.53;62.40
59272;BME280;45043;51.068;7.026;2023-08-08T08:07:41;100302.13;;;12.53;62.43
59272;BME280;45043;51.068;7.026;2023-08-08T08:10:42;100295.56;;;12.56;62.40
59272;BME280;45043;51.068;7.026;2023-08-08T08:13:43;100307.97;;;12.69;62.38
59272;BME280;45043;51.068;7.026;2023-08-08T08:16:45;100312.06;;;12.78;62.15
59272;BME280;45043;51.068;7.026;2023-08-08T08:19:46;100301.94;;;12.86;61.51
59272;BME280;45043;51.068;7.026;2023-08-08T08:22:47;100296.75;;;12.98;61.43
59272;BME280;45043;51.068;7.026;2023-08-08T08:25:48;100297.25;;;13.13;61.15
59272;BME280;45043;51.068;7.026;2023-08-08T08:28:50;100286.13;;;13.17;60.47
59272;BME280;45043;51.068;7.026;2023-08-08T08:31:51;100300.13;;;13.12;60.86
59272;BME280;45043;51.068;7.026;2023-08-08T08:34:52;100290.97;;;13.01;61.18
59272;BME280;45043;51.068;7.026;2023-08-08T08:37:53;100290.69;;;13.09;61.25
59272;BME280;45043;51.068;7.026;2023-08-08T08:40:56;100293.38;;;13.09;60.95
59272;BME280;45043;51.068;7.026;2023-08-08T08:43:56;100298.22;;;12.94;61.30
59272;BME280;45043;51.068;7.026;2023-08-08T08:47:02;100300.78;;;12.76;61.74
59272;BME280;45043;51.068;7.026;2023-08-08T08:50:03;100296.72;;;12.66;62.06
59272;BME280;45043;51.068;7.026;2023-08-08T08:53:04;100305.25;;;12.50;63.00
59272;BME280;45043;51.068;7.026;2023-08-08T08:56:05;100314.91;;;12.38;63.58
59272;BME280;45043;51.068;7.026;2023-08-08T08:59:07;100320.50;;;12.30;63.84
59272;BME280;45043;51.068;7.026;2023-08-08T09:02:08;100296.53;;;12.30;64.62
59272;BME280;45043;51.068;7.026;2023-08-08T09:05:12;100303.06;;;12.34;64.86
59272;BME280;45043;51.068;7.026;2023-08-08T09:08:12;100290.94;;;12.38;64.88
59272;BME280;45043;51.068;7.026;2023-08-08T09:11:13;100302.22;;;12.40;65.02
59272;BME280;45043;51.068;7.026;2023-08-08T09:14:22;100324.78;;;12.31;65.51
59272;BME280;45043;51.068;7.026;2023-08-08T09:17:27;100310.06;;;12.28;65.63
59272;BME280;45043;51.068;7.026;2023-08-08T09:20:28;100308.22;;;12.22;65.89
59272;BME280;45043;51.068;7.026;2023-08-08T09:23:29;100307.19;;;12.23;66.49
59272;BME280;45043;51.068;7.026;2023-08-08T09:26:30;100304.13;;;12.20;67.09
59272;BME280;45043;51.068;7.026;2023-08-08T09:29:31;100296.16;;;12.13;67.22
59272;BME280;45043;51.068;7.026;2023-08-08T09:32:32;100315.84;;;12.12;67.41
59272;BME280;45043;51.068;7.026;2023-08-08T09:35:32;100310.53;;;12.05;67.91
59272;BME280;45043;51.068;7.026;2023-08-08T09:38:33;100298.66;;;12.01;68.23
59272;BME280;45043;51.068;7.026;2023-08-08T09:41:34;100303.19;;;12.01;68.72
59272;BME280;45043;51.068;7.026;2023-08-08T09:44:35;100299.47;;;12.08;68.67
59272;BME280;45043;51.068;7.026;2023-08-08T09:47:37;100309.69;;;12.18;68.92
59272;BME280;45043;51.068;7.026;2023-08-08T09:50:39;100310.88;;;12.29;68.85
59272;BME280;45043;51.068;7.026;2023-08-08T09:53:41;100314.91;;;12.38;68.87
59272;BME280;45043;51.068;7.026;2023-08-08T09:56:42;100303.41;;;12.44;68.39
59272;BME280;45043;51.068;7.026;2023-08-08T09:59:44;100311.59;;;12.49;68.10
59272;BME280;45043;51.068;7.026;2023-08-08T10:02:47;100308.22;;;12.67;68.06
59272;BME280;45043;51.068;7.026;2023-08-08T10:05:48;100304.63;;;12.86;67.53
59272;BME280;45043;51.068;7.026;2023-08-08T10:08:50;100291.78;;;13.02;67.06
59272;BME280;45043;51.068;7.026;2023-08-08T10:11:51;100300.78;;;13.07;67.15
59272;BME280;45043;51.068;7.026;2023-08-08T10:14:52;100296.50;;;13.06;67.13
59272;BME280;45043;51.068;7.026;2023-08-08T10:17:55;100307.63;;;12.97;67.01
59272;BME280;45043;51.068;7.026;2023-08-08T10:20:57;100306.06;;;12.89;67.19
59272;BME280;45043;51.068;7.026;2023-08-08T10:24:05;100301.91;;;12.93;66.70
59272;BME280;45043;51.068;7.026;2023-08-08T10:27:07;100298.00;;;12.96;66.13
59272;BME280;45043;51.068;7.026;2023-08-08T10:30:09;100300.16;;;13.05;66.47
59272;BME280;45043;51.068;7.026;2023-08-08T10:33:26;100293.75;;;13.13;66.00
59272;BME280;45043;51.068;7.026;2023-08-08T10:36:51;100300.78;;;13.07;66.30
59272;BME280;45043;51.068;7.026;2023-08-08T10:39:53;100316.44;;;12.97;66.10
59272;BME280;45043;51.068;7.026;2023-08-08T10:42:54;100302.16;;;12.92;65.30
59272;BME280;45043;51.068;7.026;2023-08-08T10:46:02;100309.31;;;12.91;65.08
59272;BME280;45043;51.068;7.026;2023-08-08T10:49:05;100300.31;;;12.85;64.50
59272;BME280;45043;51.068;7.026;2023-08-08T10:52:06;100305.69;;;12.79;64.02
59272;BME280;45043;51.068;7.026;2023-08-08T10:58:21;100322.97;;;12.70;63.79
59272;BME280;45043;51.068;7.026;2023-08-08T11:01:27;100323.81;;;12.63;63.91
59272;BME280;45043;51.068;7.026;2023-08-08T11:04:29;100316.47;;;12.59;63.77
59272;BME280;45043;51.068;7.026;2023-08-08T11:07:32;100300.03;;;12.62;63.92
59272;BME280;45043;51.068;7.026;2023-08-08T11:10:36;100305.31;;;12.75;64.10
59272;BME280;45043;51.068;7.026;2023-08-08T11:13:37;100298.28;;;12.87;63.83
59272;BME280;45043;51.068;7.026;2023-08-08T11:16:38;100301.66;;;13.01;63.61
59272;BME280;45043;51.068;7.026;2023-08-08T11:19:42;100308.78;;;13.07;63.46
59272;BME280;45043;51.068;7.026;2023-08-08T11:22:43;100306.28;;;13.12;63.20
59272;BME280;45043;51.068;7.026;2023-08-08T11:25:45;100294.13;;;13.17;63.04
59272;BME280;45043;51.068;7.026;2023-08-08T11:28:53;100292.69;;;13.21;63.38
59272;BME280;45043;51.068;7.026;2023-08-08T11:31:54;100291.03;;;13.20;62.77
59272;BME280;45043;51.068;7.026;2023-08-08T11:34:55;100294.13;;;13.17;62.65
59272;BME280;45043;51.068;7.026;2023-08-08T11:37:57;100290.28;;;13.12;62.33
59272;BME280;45043;51.068;7.026;2023-08-08T11:40:59;100304.25;;;13.08;61.78
59272;BME280;45043;51.068;7.026;2023-08-08T11:44:01;100314.16;;;13.01;61.17
59272;BME280;45043;51.068;7.026;2023-08-08T11:47:02;100278.53;;;12.95;60.83
59272;BME280;45043;51.068;7.026;2023-08-08T11:50:09;100285.50;;;12.96;60.42
59272;BME280;45043;51.068;7.026;2023-08-08T11:53:11;100278.31;;;12.97;60.58
59272;BME280;45043;51.068;7.026;2023-08-08T11:56:13;100279.72;;;12.99;60.32
59272;BME280;45043;51.068;7.026;2023-08-08T11:59:14;100269.81;;;13.06;60.38
59272;BME280;45043;51.068;7.026;2023-08-08T12:02:16;100277.38;;;13.09;60.30
59272;BME280;45043;51.068;7.026;2023-08-08T12:05:20;100279.22;;;13.09;60.16
59272;BME280;45043;51.068;7.026;2023-08-08T12:08:23;100272.25;;;13.08;59.50
59272;BME280;45043;51.068;7.026;2023-08-08T12:11:24;100274.69;;;13.09;59.79
59272;BME280;45043;51.068;7.026;2023-08-08T12:14:28;100254.59;;;13.13;59.74
59272;BME280;45043;51.068;7.026;2023-08-08T12:17:30;100254.50;;;13.20;59.52
59272;BME280;45043;51.068;7.026;2023-08-08T12:20:31;100264.34;;;13.20;59.82
59272;BME280;45043;51.068;7.026;2023-08-08T12:23:33;100259.53;;;13.10;59.99
59272;BME280;45043;51.068;7.026;2023-08-08T12:26:34;100264.94;;;13.03;60.13
59272;BME280;45043;51.068;7.026;2023-08-08T12:29:35;100276.03;;;13.00;60.63
59272;BME280;45043;51.068;7.026;2023-08-08T12:32:36;100298.69;;;12.84;61.15
59272;BME280;45043;51.068;7.026;2023-08-08T12:35:38;100303.34;;;12.57;62.19
59272;BME280;45043;51.068;7.026;2023-08-08T12:38:40;100306.34;;;12.36;63.35
59272;BME280;45043;51.068;7.026;2023-08-08T12:41:41;100292.47;;;12.21;64.27
59272;BME280;45043;51.068;7.026;2023-08-08T12:44:42;100318.34;;;11.93;65.64
59272;BME280;45043;51.068;7.026;2023-08-08T12:47:43;100309.41;;;11.75;66.40
59272;BME280;45043;51.068;7.026;2023-08-08T12:50:43;100311.22;;;11.61;67.16
59272;BME280;45043;51.068;7.026;2023-08-08T12:53:47;100320.47;;;11.52;67.76
59272;BME280;45043;51.068;7.026;2023-08-08T12:56:47;100316.59;;;11.48;67.93
59272;BME280;45043;51.068;7.026;2023-08-08T12:59:49;100319.25;;;11.48;68.02
59272;BME280;45043;51.068;7.026;2023-08-08T13:02:50;100308.78;;;11.53;67.49
59272;BME280;45043;51.068;7.026;2023-08-08T13:05:51;100299.59;;;11.55;67.65
59272;BME280;45043;51.068;7.026;2023-08-08T13:08:52;100293.84;;;11.58;67.73
59272;BME280;45043;51.068;7.026;2023-08-08T13:11:53;100296.69;;;11.70;67.36
59272;BME280;45043;51.068;7.026;2023-08-08T13:14:54;100294.22;;;11.82;67.47
59272;BME280;45043;51.068;7.026;2023-08-08T13:17:55;100292.09;;;12.10;66.64
59272;BME280;45043;51.068;7.026;2023-08-08T13:20:56;100279.19;;;12.52;66.05
59272;BME280;45043;51.068;7.026;2023-08-08T13:23:57;100275.97;;;13.07;65.06
59272;BME280;45043;51.068;7.026;2023-08-08T13:26:59;100271.25;;;13.52;63.94
59272;BME280;45043;51.068;7.026;2023-08-08T13:30:00;100282.47;;;13.98;63.09
59272;BME280;45043;51.068;7.026;2023-08-08T13:33:01;100274.97;;;14.25;62.71
59272;BME280;45043;51.068;7.026;2023-08-08T13:36:02;100273.84;;;14.32;62.04
59272;BME280;45043;51.068;7.026;2023-08-08T13:39:03;100265.41;;;14.17;61.93
59272;BME280;45043;51.068;7.026;2023-08-08T13:42:05;100258.50;;;14.09;61.63
59272;BME280;45043;51.068;7.026;2023-08-08T13:45:06;100263.72;;;13.86;62.42
59272;BME280;45043;51.068;7.026;2023-08-08T13:48:07;100264.69;;;13.73;62.81
59272;BME280;45043;51.068;7.026;2023-08-08T13:51:08;100267.97;;;13.69;62.98
59272;BME280;45043;51.068;7.026;2023-08-08T13:54:09;100267.97;;;13.69;62.69
59272;BME280;45043;51.068;7.026;2023-08-08T13:57:10;100270.94;;;13.60;62.66
59272;BME280;45043;51.068;7.026;2023-08-08T14:00:11;100270.50;;;13.63;63.08
59272;BME280;45043;51.068;7.026;2023-08-08T14:03:13;100274.09;;;13.76;62.81
59272;BME280;45043;51.068;7.026;2023-08-08T14:06:14;100273.66;;;13.97;62.63
59272;BME280;45043;51.068;7.026;2023-08-08T14:09:15;100272.59;;;14.17;62.20
59272;BME280;45043;51.068;7.026;2023-08-08T14:12:16;100267.34;;;14.40;61.66
59272;BME280;45043;51.068;7.026;2023-08-08T14:15:17;100267.56;;;15.11;58.89
59272;BME280;45043;51.068;7.026;2023-08-08T14:18:18;100264.50;;;15.42;57.56
59272;BME280;45043;51.068;7.026;2023-08-08T14:21:19;100276.59;;;15.10;55.98
59272;BME280;45043;51.068;7.026;2023-08-08T14:24:20;100268.28;;;14.76;54.58
59272;BME280;45043;51.068;7.026;2023-08-08T14:27:20;100308.91;;;14.54;53.40
59272;BME280;45043;51.068;7.026;2023-08-08T14:30:22;100261.41;;;14.38;53.21
59272;BME280;45043;51.068;7.026;2023-08-08T14:33:23;100285.97;;;14.47;52.58
59272;BME280;45043;51.068;7.026;2023-08-08T14:36:23;100268.81;;;14.96;52.06
59272;BME280;45043;51.068;7.026;2023-08-08T14:39:24;100259.53;;;15.58;51.10
59272;BME280;45043;51.068;7.026;2023-08-08T14:42:28;100265.44;;;15.83;49.86
59272;BME280;45043;51.068;7.026;2023-08-08T14:45:29;100257.50;;;15.88;49.85
59272;BME280;45043;51.068;7.026;2023-08-08T14:48:30;100298.72;;;15.99;49.20
59272;BME280;45043;51.068;7.026;2023-08-08T14:51:32;100300.97;;;15.78;49.07
59272;BME280;45043;51.068;7.026;2023-08-08T14:54:33;100271.69;;;16.41;48.45
59272;BME280;45043;51.068;7.026;2023-08-08T14:57:34;100269.88;;;17.42;47.12
59272;BME280;45043;51.068;7.026;2023-08-08T15:00:35;100275.38;;;18.13;44.74
59272;BME280;45043;51.068;7.026;2023-08-08T15:03:36;100266.28;;;18.69;44.16
59272;BME280;45043;51.068;7.026;2023-08-08T15:06:37;100259.88;;;18.75;43.97
59272;BME280;45043;51.068;7.026;2023-08-08T15:09:41;100273.06;;;18.22;44.39
59272;BME280;45043;51.068;7.026;2023-08-08T15:12:42;100274.84;;;17.73;44.71
59272;BME280;45043;51.068;7.026;2023-08-08T15:15:43;100282.44;;;17.37;44.81
59272;BME280;45043;51.068;7.026;2023-08-08T15:18:43;100277.88;;;17.98;43.93
59272;BME280;45043;51.068;7.026;2023-08-08T15:21:45;100260.09;;;18.41;42.88
59272;BME280;45043;51.068;7.026;2023-08-08T15:24:46;100247.16;;;18.97;42.56
59272;BME280;45043;51.068;7.026;2023-08-08T15:27:47;100249.50;;;19.26;41.41
59272;BME280;45043;51.068;7.026;2023-08-08T15:30:49;100245.59;;;19.44;40.67
59272;BME280;45043;51.068;7.026;2023-08-08T15:33:49;100249.84;;;18.97;41.63
59272;BME280;45043;51.068;7.026;2023-08-08T15:36:50;100255.13;;;18.55;42.10
59272;BME280;45043;51.068;7.026;2023-08-08T15:39:52;100246.38;;;18.42;42.58
59272;BME280;45043;51.068;7.026;2023-08-08T15:42:53;100284.78;;;18.11;41.73
59272;BME280;45043;51.068;7.026;2023-08-08T15:45:54;100270.38;;;17.78;41.91
59272;BME280;45043;51.068;7.026;2023-08-08T15:48:55;100243.06;;;18.08;41.43
59272;BME280;45043;51.068;7.026;2023-08-08T15:51:56;100239.00;;;18.06;41.45